Time;durP1;ratioP1;P1;durP2;ratioP2;P2;SDS_P1;SDS_P2;PMS_P1;PMS_P2;Temp;Humidity;BMP_temperature;BMP_pressure;BME280_temperature;BME280_humidity;BME280_pressure;Samples;Min_cycle;Max_cycle;Signal;HPM_P1;HPM_P2
2022/11/28 05:36:09;;;;;;;;;10.75;9.75;;;;;11.38;100.00;100915.59;5052376;23;49887;-67
2022/11/28 05:38:36;;;;;;;;;16.50;14.00;;;;;11.39;100.00;100928.78;5036277;28;49933;-65
2022/11/28 05:41:02;;;;;;;;;11.75;10.25;;;;;11.35;100.00;100929.56;5033590;28;49735;-68
2022/11/28 05:43:28;;;;;;;;;10.00;10.00;;;;;11.33;100.00;100920.78;5032319;28;50026;-66
2022/11/28 05:45:54;;;;;;;;;13.00;11.75;;;;;11.34;100.00;100921.66;5030927;28;50313;-66
2022/11/28 05:48:19;;;;;;;;;12.50;10.00;;;;;11.04;100.00;100878.13;5051539;28;49851;-67
2022/11/28 05:50:45;;;;;;;;;10.00;10.00;;;;;11.30;100.00;100927.72;5044937;28;49754;-67
2022/11/28 05:53:11;;;;;;;;;13.50;12.75;;;;;11.28;100.00;100927.66;5032939;28;49666;-68
2022/11/28 05:55:38;;;;;;;;;15.00;10.50;;;;;11.07;100.00;100890.44;5036629;28;49753;-67
2022/11/28 05:58:03;;;;;;;;;12.50;11.25;;;;;11.26;100.00;100926.75;5030226;28;51156;-66
2022/11/28 06:00:29;;;;;;;;;14.75;11.25;;;;;11.25;100.00;100927.59;5032192;28;49828;-66
2022/11/28 06:02:55;;;;;;;;;12.25;11.00;;;;;11.30;100.00;100928.59;5034686;28;49794;-66
2022/11/28 06:05:20;;;;;;;;;10.50;10.50;;;;;11.31;100.00;100930.38;5038978;28;49788;-66
2022/11/28 06:07:46;;;;;;;;;17.00;15.75;;;;;11.33;100.00;100938.28;5033172;28;50531;-65
2022/11/28 06:10:11;;;;;;;;;10.75;10.50;;;;;11.30;100.00;100931.25;5039322;28;50024;-69
2022/11/28 06:12:36;;;;;;;;;16.50;13.50;;;;;11.29;100.00;100928.53;5036050;28;49841;-65
2022/11/28 06:15:02;;;;;;;;;12.50;11.50;;;;;11.25;100.00;100932.88;5051479;28;49840;-66
2022/11/28 06:17:29;;;;;;;;;10.50;9.75;;;;;11.29;100.00;100939.06;5050098;28;52086;-65
2022/11/28 06:19:54;;;;;;;;;16.00;14.75;;;;;11.20;100.00;100921.38;5044193;28;49933;-66
2022/11/28 06:22:20;;;;;;;;;11.25;11.25;;;;;11.39;100.00;100957.72;5040349;28;61853;-66
2022/11/28 06:24:45;;;;;;;;;12.50;10.50;;;;;11.36;100.00;100954.09;5041198;28;53235;-66
2022/11/28 06:27:10;;;;;;;;;9.25;8.25;;;;;11.16;100.00;100909.03;5037727;28;49727;-69
2022/11/28 06:29:36;;;;;;;;;10.00;9.00;;;;;11.15;100.00;100907.25;5029590;28;64659;-67
2022/11/28 06:32:01;;;;;;;;;12.25;11.75;;;;;11.43;100.00;100958.66;5033984;28;49847;-69
2022/11/28 06:34:26;;;;;;;;;13.50;13.25;;;;;11.31;100.00;100943.50;5033627;28;49882;-71
2022/11/28 06:36:52;;;;;;;;;10.00;9.75;;;;;11.44;100.00;100958.66;5031473;28;50508;-64
2022/11/28 06:39:17;;;;;;;;;11.75;11.50;;;;;11.29;100.00;100944.31;5031915;28;49926;-79
2022/11/28 06:41:43;;;;;;;;;12.00;12.00;;;;;11.21;100.00;100933.66;5032243;28;49631;-69
2022/11/28 06:44:13;;;;;;;;;10.25;9.25;;;;;11.31;100.00;100950.53;5040944;28;49918;-70
2022/11/28 06:46:38;;;;;;;;;9.75;9.75;;;;;11.39;100.00;100972.59;5042280;28;51069;-68
2022/11/28 06:49:03;;;;;;;;;14.00;11.50;;;;;11.36;100.00;100978.66;5044024;28;49638;-67
2022/11/28 06:51:29;;;;;;;;;13.50;13.50;;;;;11.38;100.00;100976.03;5039343;28;49669;-69
2022/11/28 06:53:54;;;;;;;;;11.00;11.00;;;;;11.36;100.00;100983.91;5039255;28;50106;-68
2022/11/28 06:56:20;;;;;;;;;11.50;10.75;;;;;11.37;100.00;100983.06;5031915;28;62771;-68
2022/11/28 06:58:51;;;;;;;;;12.25;12.25;;;;;11.26;100.00;100960.03;5046033;28;49790;-65
2022/11/28 07:01:19;;;;;;;;;10.50;9.75;;;;;11.36;100.00;100980.41;5035700;28;49795;-65
2022/11/28 07:03:46;;;;;;;;;13.75;10.25;;;;;11.31;100.00;100976.81;5040047;28;49769;-64
2022/11/28 07:06:13;;;;;;;;;13.00;11.00;;;;;11.14;100.00;100950.16;5035477;28;50692;-66
2022/11/28 07:08:38;;;;;;;;;15.25;11.00;;;;;11.28;100.00;100979.34;5030965;28;49673;-69
2022/11/28 07:11:22;;;;;;;;;14.25;9.75;;;;;11.28;100.00;100992.47;5031924;28;49833;-70
2022/11/28 07:13:48;;;;;;;;;12.25;12.25;;;;;11.23;100.00;100992.41;5035098;28;50263;-64
2022/11/28 07:16:17;;;;;;;;;12.25;12.00;;;;;11.24;100.00;100990.66;5038357;28;49835;-66
2022/11/28 07:18:43;;;;;;;;;11.25;9.75;;;;;11.24;100.00;100977.50;5035769;28;50874;-68
2022/11/28 07:21:09;;;;;;;;;14.00;11.50;;;;;11.07;100.00;100966.63;5037556;28;49913;-69
2022/11/28 07:23:34;;;;;;;;;12.00;10.25;;;;;11.17;100.00;100981.75;5042123;28;50084;-65
2022/11/28 07:26:01;;;;;;;;;12.00;12.00;;;;;11.15;100.00;100984.34;5035717;28;50637;-66
2022/11/28 07:28:28;;;;;;;;;10.75;8.75;;;;;11.14;100.00;100979.06;5044110;28;49866;-69
2022/11/28 07:31:02;;;;;;;;;11.25;10.50;;;;;11.13;100.00;100980.78;5034029;28;49748;-68
2022/11/28 07:33:28;;;;;;;;;10.50;9.50;;;;;11.13;100.00;100977.28;5035322;28;50047;-68
2022/11/28 07:35:53;;;;;;;;;12.25;10.00;;;;;11.12;100.00;100984.28;5053282;28;49784;-68
2022/11/28 07:38:18;;;;;;;;;9.25;8.25;;;;;11.11;100.00;100993.03;5040214;28;50269;-71
2022/11/28 07:40:44;;;;;;;;;13.50;12.75;;;;;11.00;100.00;100967.34;5042200;28;49729;-70
2022/11/28 07:43:09;;;;;;;;;7.75;6.00;;;;;10.97;100.00;100962.03;5044843;28;49274;-69
2022/11/28 07:45:38;;;;;;;;;9.00;8.00;;;;;11.05;100.00;100971.84;5051070;28;50021;-71
2022/11/28 07:48:03;;;;;;;;;11.75;10.75;;;;;11.04;100.00;100964.84;5032096;28;49616;-69
2022/11/28 07:50:29;;;;;;;;;9.75;9.25;;;;;10.85;100.00;100945.16;5033539;28;49953;-72
2022/11/28 07:52:54;;;;;;;;;8.75;7.00;;;;;11.01;100.00;100980.53;5044862;28;50210;-68
2022/11/28 07:55:19;;;;;;;;;11.75;9.25;;;;;11.07;100.00;100978.03;5050614;28;49322;-70
2022/11/28 07:57:45;;;;;;;;;14.25;10.00;;;;;11.07;100.00;100978.03;5047629;28;64547;-67
2022/11/28 08:00:11;;;;;;;;;11.75;10.75;;;;;10.99;100.00;100976.97;5043636;28;49950;-72
2022/11/28 08:02:37;;;;;;;;;13.25;9.25;;;;;11.15;100.00;101002.72;5040232;28;49887;-72
2022/11/28 08:05:03;;;;;;;;;11.50;8.00;;;;;11.18;100.00;101001.91;5035514;28;51642;-71
2022/11/28 08:07:38;;;;;;;;;8.75;8.75;;;;;10.97;100.00;100970.78;5053755;28;49816;-74
2022/11/28 08:10:05;;;;;;;;;13.00;9.75;;;;;11.05;100.00;100976.22;5022715;28;49954;-73
2022/11/28 08:12:30;;;;;;;;;9.75;9.00;;;;;11.15;100.00;100986.97;5019451;28;49952;-74
2022/11/28 08:14:55;;;;;;;;;14.75;10.00;;;;;11.30;100.00;101014.44;5030567;28;69489;-73
2022/11/28 08:17:21;;;;;;;;;13.25;12.25;;;;;11.23;100.00;100996.78;5037128;28;49782;-74
2022/11/28 08:19:47;;;;;;;;;9.50;9.50;;;;;11.35;100.00;101016.31;5018729;28;49767;-73
2022/11/28 08:22:12;;;;;;;;;9.00;9.00;;;;;11.33;100.00;100999.63;5034590;28;49767;-73
2022/11/28 08:24:37;;;;;;;;;8.00;8.00;;;;;11.42;100.00;101006.81;5048339;28;51275;-71
2022/11/28 08:27:11;;;;;;;;;8.75;8.25;;;;;11.21;100.00;100967.84;5040460;28;49824;-74
2022/11/28 08:29:37;;;;;;;;;8.25;7.00;;;;;11.53;100.00;101015.81;5031385;28;49816;-73
2022/11/28 08:32:02;;;;;;;;;13.50;8.00;;;;;11.52;100.00;101013.16;5047297;28;49962;-71
2022/11/28 08:34:28;;;;;;;;;8.75;8.75;;;;;11.37;100.00;100990.03;5042008;28;50276;-76
2022/11/28 08:36:53;;;;;;;;;9.75;9.75;;;;;11.28;100.00;100976.72;5042566;28;49831;-75
2022/11/28 08:39:18;;;;;;;;;9.00;9.00;;;;;11.28;100.00;100968.81;5034121;28;64350;-74
2022/11/28 08:41:43;;;;;;;;;13.00;11.00;;;;;11.57;100.00;101022.00;5030042;28;50063;-75
2022/11/28 08:44:09;;;;;;;;;6.75;4.75;;;;;11.57;100.00;101024.66;5029751;28;50253;-73
2022/11/28 08:46:35;;;;;;;;;17.25;10.00;;;;;11.39;100.00;100980.47;5030040;28;49765;-74
2022/11/28 08:49:00;;;;;;;;;7.25;5.50;;;;;11.52;100.00;101000.00;5043149;28;49560;-75
2022/11/28 08:51:29;;;;;;;;;8.75;4.75;;;;;11.54;100.00;101012.31;5031038;28;49758;-75
2022/11/28 08:53:55;;;;;;;;;9.00;8.00;;;;;11.55;100.00;101024.63;5033599;28;51077;-76
2022/11/28 08:56:20;;;;;;;;;4.25;4.25;;;;;11.45;100.00;101005.13;5033567;28;49773;-76
2022/11/28 08:58:46;;;;;;;;;6.00;5.00;;;;;11.51;100.00;101009.66;5033392;28;49778;-75
2022/11/28 09:01:16;;;;;;;;;7.50;7.50;;;;;11.55;100.00;101010.59;5033463;28;49964;-74
2022/11/28 09:03:42;;;;;;;;;9.00;7.25;;;;;11.53;100.00;101007.03;5027690;28;50511;-75
2022/11/28 09:06:07;;;;;;;;;9.75;8.00;;;;;11.47;100.00;101006.03;5033210;28;49908;-75
2022/11/28 09:08:33;;;;;;;;;8.00;8.00;;;;;11.52;100.00;101008.78;5033477;28;49963;-76
2022/11/28 09:10:58;;;;;;;;;9.00;7.25;;;;;11.54;100.00;101008.81;5040310;28;49656;-77
2022/11/28 09:13:24;;;;;;;;;8.00;6.50;;;;;11.62;100.00;101015.13;5033343;28;49692;-78
2022/11/28 09:15:49;;;;;;;;;12.50;9.50;;;;;11.61;100.00;101014.25;5033210;28;49762;-75
2022/11/28 09:18:16;;;;;;;;;4.50;4.00;;;;;11.62;100.00;101013.38;5032872;28;49720;-77
2022/11/28 09:20:41;;;;;;;;;8.50;7.25;;;;;11.70;100.00;101011.78;5033227;28;49955;-75
2022/11/28 09:23:07;;;;;;;;;5.75;5.75;;;;;11.46;100.00;100963.97;5032993;28;49828;-78
2022/11/28 09:25:37;;;;;;;;;8.50;6.00;;;;;11.58;100.00;100990.53;5033358;28;50001;-78
2022/11/28 09:28:04;;;;;;;;;7.50;5.00;;;;;11.84;100.00;101017.34;5033381;28;49721;-74
2022/11/28 09:30:29;;;;;;;;;8.00;8.00;;;;;11.89;100.00;101020.97;5033432;28;50007;-75
2022/11/28 09:32:54;;;;;;;;;9.00;8.00;;;;;11.92;100.00;101023.66;5032502;28;49614;-77
2022/11/28 09:35:20;;;;;;;;;7.25;7.25;;;;;11.80;100.00;100994.50;5032813;28;49863;-78
2022/11/28 09:37:45;;;;;;;;;9.00;9.00;;;;;11.82;100.00;100994.50;5032805;28;49823;-75
2022/11/28 09:40:30;;;;;;;;;9.50;8.00;;;;;11.98;100.00;101018.53;5033132;28;49677;-75
2022/11/28 09:42:59;;;;;;;;;10.25;8.50;;;;;12.03;100.00;101013.34;5027659;28;51902;-76
2022/11/28 09:45:25;;;;;;;;;11.50;10.25;;;;;11.96;100.00;100995.66;5051450;28;49709;-74
2022/11/28 09:47:56;;;;;;;;;6.75;6.25;;;;;12.14;100.00;101018.78;5052250;28;50225;-75
2022/11/28 09:50:32;;;;;;;;;9.50;9.50;;;;;12.11;100.00;101011.72;5034437;28;49870;-74
2022/11/28 09:53:13;;;;;;;;;8.75;6.50;;;;;12.24;100.00;101031.25;5032371;28;50336;-74
2022/11/28 09:55:57;;;;;;;;;6.50;5.25;;;;;12.28;100.00;101035.75;5032444;28;49903;-74
2022/11/28 09:58:38;;;;;;;;;8.50;4.75;;;;;12.31;100.00;101027.88;5031319;28;49718;-73
2022/11/28 10:01:09;;;;;;;;;7.75;4.00;;;;;12.37;100.00;101022.75;5033302;28;50084;-76
2022/11/28 10:03:45;;;;;;;;;9.50;8.75;;;;;12.22;100.00;100993.50;5032128;28;51075;-74
2022/11/28 10:06:27;;;;;;;;;10.75;8.00;;;;;12.12;100.00;100966.13;5045781;28;49861;-74
2022/11/28 10:09:08;;;;;;;;;11.25;9.75;;;;;12.41;100.00;101015.78;5051693;28;49919;-74
2022/11/28 10:11:52;;;;;;;;;4.25;4.25;;;;;12.38;100.00;101015.72;5051870;28;50240;-75
2022/11/28 10:14:46;;;;;;;;;8.25;5.50;;;;;12.39;100.00;101013.13;5051169;28;50502;-75
2022/11/28 10:17:36;;;;;;;;;9.75;8.00;;;;;12.45;100.00;101021.13;5032094;28;49791;-73
2022/11/28 10:20:09;;;;;;;;;5.00;5.00;;;;;12.37;100.00;100995.53;5032320;28;50097;-72
2022/11/28 10:22:43;;;;;;;;;5.50;5.50;;;;;12.49;100.00;101016.78;5045016;28;49989;-72
2022/11/28 10:25:42;;;;;;;;;3.50;3.00;;;;;11.52;100.00;100868.56;5051125;28;49867;-73
2022/11/28 10:28:20;;;;;;;;;10.00;6.00;;;;;11.10;100.00;100809.09;5046252;28;49968;-75
2022/11/28 10:30:56;;;;;;;;;8.50;5.00;;;;;11.17;100.00;100824.97;5050958;28;49711;-75
2022/11/28 10:33:29;;;;;;;;;4.75;4.00;;;;;11.69;100.00;100893.44;5050820;28;49772;-73
2022/11/28 10:36:00;;;;;;;;;8.25;5.25;;;;;11.81;100.00;100933.13;5050589;28;49829;-73
2022/11/28 10:38:28;;;;;;;;;4.75;4.75;;;;;11.24;100.00;100823.34;5050917;28;49784;-75
2022/11/28 10:40:57;;;;;;;;;3.25;3.25;;;;;12.42;100.00;101022.81;5051059;28;49912;-75
2022/11/28 10:43:28;;;;;;;;;6.00;4.50;;;;;12.43;100.00;101011.41;5050938;28;49716;-74
2022/11/28 10:46:08;;;;;;;;;4.00;3.25;;;;;12.44;100.00;101011.44;5050721;28;50986;-75
2022/11/28 10:48:54;;;;;;;;;5.25;4.25;;;;;12.43;100.00;101012.28;5050526;28;49777;-72
2022/11/28 10:51:29;;;;;;;;;3.50;3.25;;;;;12.45;100.00;101022.84;5050689;28;50465;-73
2022/11/28 10:54:18;;;;;;;;;4.75;3.00;;;;;12.42;100.00;101026.31;5032731;28;50077;-72
2022/11/28 10:56:50;;;;;;;;;5.00;4.00;;;;;12.51;100.00;101015.94;5050760;28;50500;-73
2022/11/28 11:00:07;;;;;;;;;5.00;4.25;;;;;12.48;100.00;101007.13;5050655;28;49743;-73
2022/11/28 11:02:40;;;;;;;;;6.00;5.00;;;;;12.25;100.00;100961.97;5005107;28;50123;-75
2022/11/28 11:05:10;;;;;;;;;4.25;4.25;;;;;11.99;100.00;100932.59;5031616;28;49810;-73
2022/11/28 11:07:36;;;;;;;;;5.00;4.50;;;;;11.47;100.00;100818.50;5031142;28;49893;-74
2022/11/28 11:10:13;;;;;;;;;5.50;2.00;;;;;12.59;100.00;101016.97;5031146;28;49700;-74
2022/11/28 11:12:39;;;;;;;;;2.75;2.75;;;;;11.59;100.00;100862.56;5031126;28;50018;-74
2022/11/28 11:15:18;;;;;;;;;1.00;1.00;;;;;12.30;100.00;100982.25;5031354;28;50288;-74
2022/11/28 11:17:43;;;;;;;;;4.00;4.00;;;;;11.83;100.00;100888.44;5020060;28;52890;-74
2022/11/28 11:20:33;;;;;;;;;3.75;3.00;;;;;12.66;100.00;101023.25;5050349;28;49692;-75
2022/11/28 11:23:09;;;;;;;;;2.00;2.00;;;;;11.72;100.00;100880.31;5050292;28;49562;-74
2022/11/28 11:25:34;;;;;;;;;3.25;2.75;;;;;12.11;100.00;100932.78;5050267;28;49939;-74
2022/11/28 11:28:03;;;;;;;;;2.00;2.00;;;;;11.88;100.00;100877.16;5049999;28;50563;-74
2022/11/28 11:30:33;;;;;;;;;4.75;4.75;;;;;11.87;100.00;100874.47;5050233;28;49863;-73
2022/11/28 11:33:02;;;;;;;;;8.75;5.25;;;;;12.80;100.00;101019.06;5049715;28;49801;-74
2022/11/28 11:35:33;;;;;;;;;4.25;4.25;;;;;12.85;100.00;101017.41;5049970;28;49906;-73
2022/11/28 11:38:27;;;;;;;;;3.50;3.50;;;;;12.67;100.00;100968.81;5049980;28;50798;-75
2022/11/28 11:40:53;;;;;;;;;12.00;8.50;;;;;12.02;100.00;100815.09;5050088;28;49780;-74
2022/11/28 11:43:34;;;;;;;;;3.00;1.75;;;;;13.26;100.00;100993.41;5033054;28;49621;-74
2022/11/28 11:46:09;;;;;;;;;4.00;4.00;;;;;13.10;100.00;100933.41;5039798;28;49821;-74
2022/11/28 11:48:37;;;;;;;;;7.75;4.00;;;;;12.82;100.00;100861.00;5041935;28;49910;-87
2022/11/28 11:51:03;;;;;;;;;5.25;3.00;;;;;13.55;100.00;100995.56;5043765;28;49353;-79
2022/11/28 11:53:28;;;;;;;;;4.75;3.75;;;;;12.30;100.00;100765.50;5046933;28;49706;-75
2022/11/28 11:55:57;;;;;;;;;7.00;3.75;;;;;13.66;100.00;100981.63;5050526;28;59147;-67
2022/11/28 11:58:29;;;;;;;;;3.25;3.00;;;;;13.69;100.00;100976.38;5053715;28;51410;-66
2022/11/28 12:00:58;;;;;;;;;9.75;8.50;;;;;13.74;100.00;100982.59;5045927;28;49969;-65
2022/11/28 12:04:02;;;;;;;;;14.25;14.25;;;;;13.75;100.00;100979.09;5046967;28;49771;-66
2022/11/28 12:06:39;;;;;;;;;13.25;13.25;;;;;13.80;100.00;100976.53;5007982;28;49637;-65
2022/11/28 12:09:19;;;;;;;;;21.25;20.00;;;;;13.79;100.00;100972.06;5050352;28;49435;-67
2022/11/28 12:11:54;;;;;;;;;12.00;10.00;;;;;13.77;100.00;100967.66;5034394;28;49769;-68
2022/11/28 12:14:19;;;;;;;;;9.00;9.00;;;;;13.85;100.00;100976.56;5047038;28;49713;-69
2022/11/28 12:17:20;;;;;;;;;16.75;13.00;;;;;13.89;100.00;100984.50;5039658;28;49743;-69
2022/11/28 12:19:48;;;;;;;;;10.00;8.75;;;;;13.95;100.00;100974.03;5046741;28;49605;-68
2022/11/28 12:22:38;;;;;;;;;8.00;6.75;;;;;13.92;100.00;100974.00;5048127;28;49694;-70
2022/11/28 12:25:21;;;;;;;;;14.00;9.75;;;;;13.94;100.00;100977.53;5034249;28;49669;-69
2022/11/28 12:28:25;;;;;;;;;17.50;12.75;;;;;13.91;100.00;100963.44;5032076;28;49738;-69
2022/11/28 12:30:53;;;;;;;;;7.00;7.00;;;;;13.92;100.00;100959.91;5005263;28;49844;-69
2022/11/28 12:33:38;;;;;;;;;30.25;27.25;;;;;13.88;100.00;100963.38;5044084;28;49924;-70
2022/11/28 12:36:15;;;;;;;;;16.75;13.75;;;;;13.85;100.00;100953.69;5052709;28;49860;-69
2022/11/28 12:38:56;;;;;;;;;10.50;10.00;;;;;13.86;100.00;100959.84;5052787;28;49626;-69
2022/11/28 12:41:46;;;;;;;;;10.50;5.00;;;;;13.85;100.00;100958.06;5034833;28;51244;-69
2022/11/28 12:44:40;;;;;;;;;6.00;5.75;;;;;13.90;100.00;100954.63;5052658;28;49768;-69
2022/11/28 12:47:37;;;;;;;;;7.25;5.50;;;;;13.91;100.00;100950.25;5052684;28;49598;-69
2022/11/28 12:50:24;;;;;;;;;7.25;6.00;;;;;13.93;100.00;100949.38;5015481;28;49663;-69
2022/11/28 12:52:56;;;;;;;;;8.50;5.25;;;;;13.84;100.00;100925.53;5046464;28;50540;-69
2022/11/28 12:55:48;;;;;;;;;3.25;3.00;;;;;13.96;99.24;100949.41;5033508;28;49744;-69
2022/11/28 12:58:23;;;;;;;;;12.25;11.25;;;;;13.98;100.00;100945.00;5033358;28;49735;-69
2022/11/28 13:01:03;;;;;;;;;15.25;12.75;;;;;14.02;100.00;100941.56;5033293;28;49856;-69
2022/11/28 13:04:00;;;;;;;;;15.50;15.00;;;;;13.89;99.32;100930.84;5045841;28;49676;-70
2022/11/28 13:06:26;;;;;;;;;14.00;14.00;;;;;14.03;99.45;100943.31;5048283;28;49929;-69
2022/11/28 13:08:57;;;;;;;;;15.50;15.25;;;;;14.02;98.29;100943.31;5052683;28;49850;-69
2022/11/28 13:11:48;;;;;;;;;7.50;5.75;;;;;13.99;99.39;100930.06;5035073;28;49982;-69
2022/11/28 13:14:22;;;;;;;;;7.00;7.00;;;;;14.06;98.24;100925.72;5052534;28;49882;-70
2022/11/28 13:16:55;;;;;;;;;12.75;12.50;;;;;14.05;97.59;100924.84;5052209;28;49858;-69
2022/11/28 13:19:56;;;;;;;;;12.75;8.50;;;;;14.09;97.46;100944.22;5052354;28;49793;-69
2022/11/28 13:22:27;;;;;;;;;12.75;12.75;;;;;13.93;97.98;100940.56;4970405;28;49804;-69
2022/11/28 13:25:10;;;;;;;;;7.00;7.00;;;;;13.76;98.38;100919.28;5024607;28;49777;-69
2022/11/28 13:28:02;;;;;;;;;7.00;5.50;;;;;13.89;98.23;100958.09;5032816;28;49682;-70
2022/11/28 13:30:35;;;;;;;;;13.75;12.25;;;;;13.59;97.67;100921.72;5012487;28;49878;-68
2022/11/28 13:33:19;;;;;;;;;5.00;4.50;;;;;13.69;97.39;100963.19;5045592;28;49718;-68
2022/11/28 13:35:46;;;;;;;;;8.75;7.25;;;;;13.51;99.12;100925.16;5051677;28;49906;-69
2022/11/28 13:38:56;;;;;;;;;5.00;5.00;;;;;13.67;99.30;100958.75;5051118;28;49988;-68
2022/11/28 13:41:44;;;;;;;;;7.00;7.00;;;;;13.59;99.88;100940.19;5013154;28;49938;-69
2022/11/28 13:44:17;;;;;;;;;7.00;5.00;;;;;13.58;100.00;100927.88;5032894;28;49935;-69
2022/11/28 13:46:44;;;;;;;;;12.50;12.25;;;;;13.65;98.88;100929.72;5032504;28;49760;-69
2022/11/28 13:49:20;;;;;;;;;7.00;5.25;;;;;13.64;97.46;100932.34;5032258;28;49688;-70
2022/11/28 13:51:46;;;;;;;;;6.50;6.00;;;;;13.56;99.31;100924.34;5032719;28;50033;-69
2022/11/28 13:54:21;;;;;;;;;8.00;6.00;;;;;13.83;99.23;100962.47;5032613;28;49856;-68
2022/11/28 13:57:10;;;;;;;;;6.50;6.50;;;;;13.48;97.69;100901.38;5032441;28;51047;-69
2022/11/28 13:59:37;;;;;;;;;11.25;10.75;;;;;13.62;99.87;100921.78;5047850;28;49895;-69
2022/11/28 14:02:14;;;;;;;;;6.75;5.25;;;;;13.82;98.41;100958.94;5051464;28;49863;-69
2022/11/28 14:04:42;;;;;;;;;10.00;10.00;;;;;13.81;99.21;100949.25;5051717;28;49665;-68
2022/11/28 14:07:24;;;;;;;;;10.75;10.75;;;;;13.83;99.56;100957.19;5051253;28;50483;-69
2022/11/28 14:10:11;;;;;;;;;13.50;7.25;;;;;13.38;98.62;100898.66;5033585;28;49785;-69
2022/11/28 14:12:43;;;;;;;;;11.50;7.00;;;;;13.89;99.12;100960.75;5051537;28;49743;-69
2022/11/28 14:15:19;;;;;;;;;9.25;3.25;;;;;13.92;97.65;100968.72;5051670;28;49725;-69
2022/11/28 14:18:17;;;;;;;;;5.50;5.00;;;;;13.89;97.98;100954.59;5050809;28;49591;-68
2022/11/28 14:20:56;;;;;;;;;5.75;5.00;;;;;14.03;96.94;100976.75;5051495;28;49673;-69
2022/11/28 14:23:36;;;;;;;;;4.25;3.25;;;;;14.00;96.48;100974.09;5051357;28;49834;-68
2022/11/28 14:26:13;;;;;;;;;11.75;7.75;;;;;13.99;96.15;100981.13;5051388;28;49722;-69
2022/11/28 14:28:43;;;;;;;;;2.00;2.00;;;;;13.97;95.41;100980.19;5051179;28;49575;-68
2022/11/28 14:31:09;;;;;;;;;10.50;5.75;;;;;14.02;96.35;100986.44;5050941;28;49854;-68
2022/11/28 14:33:44;;;;;;;;;5.00;4.25;;;;;13.87;94.37;100948.41;5050773;28;49807;-68
2022/11/28 14:36:10;;;;;;;;;2.00;2.00;;;;;14.06;94.96;100983.81;5043398;28;49725;-69
2022/11/28 14:38:35;;;;;;;;;5.25;5.25;;;;;14.05;94.93;100982.91;5040561;28;50865;-68
2022/11/28 14:41:05;;;;;;;;;4.00;3.75;;;;;13.95;95.20;100986.34;5038956;28;49908;-70
2022/11/28 14:43:52;;;;;;;;;3.00;3.00;;;;;13.51;95.03;100922.50;5040786;28;49879;-70
2022/11/28 14:46:20;;;;;;;;;5.25;3.00;;;;;13.63;95.50;100955.22;5036255;28;51140;-70
2022/11/28 14:48:57;;;;;;;;;10.50;7.00;;;;;13.64;96.28;100988.63;5031168;28;50354;-71
2022/11/28 14:51:48;;;;;;;;;4.00;4.00;;;;;13.55;96.83;100992.91;5039503;28;49685;-71
2022/11/28 14:54:27;;;;;;;;;4.25;4.25;;;;;13.18;97.58;100959.00;5023967;28;49709;-71
2022/11/28 14:56:53;;;;;;;;;5.00;4.25;;;;;12.86;98.37;100918.16;5031858;28;49866;-71
2022/11/28 14:59:35;;;;;;;;;9.00;8.25;;;;;13.12;99.50;100951.03;5024316;28;52756;-70
2022/11/28 15:02:09;;;;;;;;;7.00;6.00;;;;;13.28;100.00;100988.16;5030364;28;49678;-71
2022/11/28 15:05:06;;;;;;;;;7.50;6.75;;;;;13.24;99.81;100996.91;5038946;28;49736;-71
2022/11/28 15:08:09;;;;;;;;;5.00;4.25;;;;;13.20;100.00;100993.31;5047887;28;49705;-69
2022/11/28 15:10:58;;;;;;;;;5.50;3.50;;;;;13.02;100.00;100964.94;5035619;28;51011;-70
2022/11/28 15:13:31;;;;;;;;;3.00;3.00;;;;;13.18;100.00;100993.28;5037236;28;49729;-69
2022/11/28 15:15:57;;;;;;;;;3.25;3.25;;;;;13.00;100.00;100987.75;5035346;28;49678;-73
2022/11/28 15:18:24;;;;;;;;;7.75;3.75;;;;;13.13;100.00;100996.72;5035894;28;49835;-76
2022/11/28 15:21:05;;;;;;;;;3.00;3.00;;;;;12.89;100.00;100970.91;5052802;28;49734;-66
2022/11/28 15:23:35;;;;;;;;;4.50;4.00;;;;;13.01;100.00;100991.25;5056308;28;49856;-66
2022/11/28 15:26:02;;;;;;;;;5.75;4.00;;;;;12.86;100.00;100984.03;5034902;28;50068;-72
2022/11/28 15:28:31;;;;;;;;;5.50;4.75;;;;;12.88;99.83;100993.72;5051647;28;49795;-71
2022/11/28 15:31:00;;;;;;;;;9.25;9.25;;;;;12.50;100.00;100956.25;5040609;28;50846;-70
2022/11/28 15:33:27;;;;;;;;;7.00;6.00;;;;;12.70;100.00;100982.00;5035218;28;49832;-68
2022/11/28 15:35:58;;;;;;;;;3.00;2.00;;;;;12.54;99.82;100983.50;5039662;28;49718;-69
2022/11/28 15:38:25;;;;;;;;;4.50;3.50;;;;;12.48;100.00;100973.78;5035079;28;49611;-69
2022/11/28 15:40:54;;;;;;;;;3.00;2.50;;;;;12.31;100.00;100962.97;5032224;28;50765;-68
2022/11/28 15:43:20;;;;;;;;;3.00;3.00;;;;;12.49;100.00;100993.09;5041649;28;49746;-79
2022/11/28 15:45:52;;;;;;;;;5.00;3.50;;;;;12.50;100.00;101005.41;5031628;28;49880;-69
2022/11/28 15:48:31;;;;;;;;;2.50;2.00;;;;;12.46;100.00;101012.38;5031188;28;49805;-66
2022/11/28 15:50:56;;;;;;;;;3.50;2.50;;;;;12.36;100.00;100999.91;5030779;28;49946;-71
2022/11/28 15:53:22;;;;;;;;;5.00;3.50;;;;;12.39;100.00;101015.75;5030613;28;49819;-70
2022/11/28 15:56:08;;;;;;;;;4.75;3.75;;;;;12.14;100.00;100972.31;5034631;28;49742;-66
2022/11/28 15:58:34;;;;;;;;;5.75;5.75;;;;;12.12;100.00;100983.66;5036332;28;49614;-65
2022/11/28 16:01:11;;;;;;;;;3.50;3.25;;;;;12.21;100.00;101013.66;5034805;28;50964;-66
2022/11/28 16:03:58;;;;;;;;;3.75;3.75;;;;;12.16;100.00;101007.47;5036264;28;50148;-70
2022/11/28 16:06:28;;;;;;;;;3.75;3.00;;;;;11.74;100.00;100949.63;5038642;28;49812;-78
2022/11/28 16:08:58;;;;;;;;;4.25;3.50;;;;;11.87;100.00;100987.56;5044003;28;49781;-70
2022/11/28 16:11:27;;;;;;;;;6.00;4.75;;;;;11.99;100.00;101030.81;5048661;28;50796;-81
2022/11/28 16:13:56;;;;;;;;;2.50;2.50;;;;;11.92;100.00;101033.28;5033710;28;50023;-69
2022/11/28 16:16:26;;;;;;;;;3.00;3.00;;;;;11.78;100.00;101014.59;5031847;28;49813;-73
2022/11/28 16:19:02;;;;;;;;;4.75;3.00;;;;;11.85;100.00;101023.50;5039685;28;49751;-73
2022/11/28 16:21:39;;;;;;;;;7.75;5.00;;;;;11.80;100.00;101033.06;5030274;28;50592;-72
2022/11/28 16:24:35;;;;;;;;;3.50;3.50;;;;;11.67;100.00;101013.47;5036905;28;49877;-70
2022/11/28 16:27:03;;;;;;;;;5.00;2.50;;;;;11.67;100.00;101029.22;4994530;28;49789;-71
2022/11/28 16:29:34;;;;;;;;;3.00;3.00;;;;;11.59;100.00;101028.22;5038789;28;49779;-75
2022/11/28 16:32:06;;;;;;;;;4.25;2.50;;;;;11.56;100.00;101022.88;5035206;28;49943;-79
2022/11/28 16:34:47;;;;;;;;;6.50;4.00;;;;;11.52;100.00;101035.06;5037417;28;50161;-73
2022/11/28 16:37:16;;;;;;;;;2.75;2.75;;;;;11.49;100.00;101034.13;5045587;28;50159;-69
2022/11/28 16:39:42;;;;;;;;;3.00;3.00;;;;;11.35;100.00;101018.94;5036188;28;49944;-70
2022/11/28 16:42:16;;;;;;;;;5.25;3.25;;;;;11.35;100.00;101037.34;5042739;28;50497;-73
2022/11/28 16:44:42;;;;;;;;;4.75;3.75;;;;;11.26;100.00;101029.25;5029559;28;49750;-67
2022/11/28 16:47:24;;;;;;;;;2.25;2.25;;;;;11.22;100.00;101027.41;5029944;28;49724;-69
2022/11/28 16:50:16;;;;;;;;;3.75;3.50;;;;;11.24;100.00;101043.22;5048486;28;49772;-69
2022/11/28 16:52:52;;;;;;;;;3.00;3.00;;;;;11.18;100.00;101042.19;5039239;28;51425;-69
2022/11/28 16:55:32;;;;;;;;;6.00;4.00;;;;;11.14;100.00;101042.13;5035052;28;49674;-83
2022/11/28 16:58:10;;;;;;;;;7.00;7.00;;;;;10.95;100.00;101013.66;5039436;28;49814;-66
2022/11/28 17:00:38;;;;;;;;;4.50;4.50;;;;;10.72;100.00;100990.38;5029859;28;49724;-67
2022/11/28 17:03:05;;;;;;;;;4.00;3.50;;;;;10.80;100.00;101012.41;5038380;28;51140;-69
2022/11/28 17:05:31;;;;;;;;;6.00;5.75;;;;;10.82;100.00;101020.34;5030312;28;49924;-70
2022/11/28 17:07:56;;;;;;;;;10.00;7.00;;;;;10.93;100.00;101049.50;5031211;28;49678;-70
2022/11/28 17:10:24;;;;;;;;;12.50;9.25;;;;;10.78;100.00;101031.63;5033255;28;49644;-74
2022/11/28 17:12:49;;;;;;;;;9.50;7.75;;;;;10.80;100.00;101045.66;5032716;28;50407;-72
2022/11/28 17:15:17;;;;;;;;;11.75;10.25;;;;;10.68;100.00;101032.25;5033027;28;49827;-74